createdAt,value
2018-12-08T00:00:42.277Z,7.86
2018-12-08T00:01:42.262Z,7.84
2018-12-08T00:02:42.252Z,7.89
2018-12-08T00:03:42.248Z,7.91
2018-12-08T00:04:42.238Z,7.91
2018-12-08T00:05:42.223Z,7.88
2018-12-08T00:06:42.213Z,7.85
2018-12-08T00:07:42.203Z,7.88
2018-12-08T00:08:42.194Z,7.89
2018-12-08T00:09:42.189Z,7.84
2018-12-08T00:10:42.181Z,7.85
2018-12-08T00:11:42.534Z,7.88
2018-12-08T00:12:42.159Z,7.89
2018-12-08T00:13:42.146Z,7.86
2018-12-08T00:14:42.136Z,7.91
2018-12-08T00:15:42.128Z,7.88
2018-12-08T00:16:42.117Z,7.85
2018-12-08T00:17:42.112Z,7.88
2018-12-08T00:18:42.105Z,7.85
2018-12-08T00:19:42.091Z,7.89
2018-12-08T00:20:42.079Z,7.88
2018-12-08T00:21:42.074Z,7.91
2018-12-08T00:22:42.064Z,7.88
2018-12-08T00:23:42.054Z,7.85
2018-12-08T00:24:42.044Z,7.88
2018-12-08T00:25:42.030Z,7.88
2018-12-08T00:26:42.022Z,7.89
2018-12-08T00:27:42.012Z,7.84
2018-12-08T00:28:42.001Z,7.84
2018-12-08T00:29:41.997Z,7.86
2018-12-08T00:30:41.988Z,7.96
2018-12-08T00:31:41.980Z,7.86
2018-12-08T00:32:41.966Z,7.89
2018-12-08T00:33:41.952Z,7.88
2018-12-08T00:34:41.943Z,7.92
2018-12-08T00:35:41.938Z,7.96
2018-12-08T00:36:42.055Z,8.04
2018-12-08T00:37:41.915Z,8.06
2018-12-08T00:38:41.905Z,8.09
2018-12-08T00:39:41.896Z,8.09
2018-12-08T00:40:41.885Z,8.10
2018-12-08T00:41:41.881Z,8.13
2018-12-08T00:42:41.872Z,8.12
2018-12-08T00:43:41.862Z,8.10
2018-12-08T00:44:41.853Z,8.12
2018-12-08T00:45:41.838Z,8.09
2018-12-08T00:46:41.828Z,8.09
2018-12-08T00:47:41.820Z,8.10
2018-12-08T00:48:41.811Z,8.10
2018-12-08T00:49:41.804Z,8.09
2018-12-08T00:50:41.796Z,8.12
2018-12-08T00:51:41.785Z,8.14
2018-12-08T00:52:41.772Z,8.09
2018-12-08T00:53:41.767Z,8.10
2018-12-08T00:54:41.759Z,8.12
2018-12-08T00:55:41.749Z,8.12
2018-12-08T00:56:41.740Z,8.09
2018-12-08T00:57:41.725Z,8.03
2018-12-08T00:58:41.715Z,8.18
2018-12-08T00:59:41.708Z,8.09
2018-12-08T01:00:41.697Z,8.12
2018-12-08T01:01:41.693Z,8.12
2018-12-08T01:02:41.683Z,8.13
2018-12-08T01:03:41.674Z,8.10
2018-12-08T01:04:41.662Z,8.22
2018-12-08T01:05:41.649Z,8.21
2018-12-08T01:06:41.644Z,8.28
2018-12-08T01:07:41.636Z,8.21
2018-12-08T01:08:41.626Z,8.20
2018-12-08T01:09:41.611Z,8.22
2018-12-08T01:10:41.602Z,8.22
2018-12-08T01:11:41.593Z,8.22
2018-12-08T01:12:41.583Z,8.29
2018-12-08T01:13:41.580Z,8.27
2018-12-08T01:14:41.569Z,8.27
2018-12-08T01:15:41.571Z,8.27
2018-12-08T01:16:41.549Z,8.22
2018-12-08T01:17:41.536Z,8.31
2018-12-08T01:18:41.531Z,8.25
2018-12-08T01:19:41.519Z,8.32
2018-12-08T01:20:41.507Z,8.25
2018-12-08T01:21:41.503Z,8.28
2018-12-08T01:22:41.493Z,8.34
2018-12-08T01:23:41.481Z,8.27
2018-12-08T01:24:41.471Z,8.27
2018-12-08T01:25:41.466Z,8.27
2018-12-08T01:26:41.457Z,8.25
2018-12-08T01:27:41.448Z,8.32
2018-12-08T01:28:41.437Z,8.24
2018-12-08T01:29:41.423Z,8.20
2018-12-08T01:30:41.422Z,8.24
2018-12-08T01:31:41.404Z,8.17
2018-12-08T01:32:41.395Z,8.21
2018-12-08T01:33:41.389Z,8.17
2018-12-08T01:34:41.381Z,8.22
2018-12-08T01:35:41.377Z,8.14
2018-12-08T01:36:41.366Z,8.10
2018-12-08T01:37:41.352Z,8.14
2018-12-08T01:38:41.344Z,8.13
2018-12-08T01:39:41.340Z,8.13
2018-12-08T01:40:41.332Z,8.13
2018-12-08T01:41:41.314Z,8.04
2018-12-08T01:42:41.304Z,8.04
2018-12-08T01:43:41.295Z,8.02
2018-12-08T01:44:41.287Z,8.03
2018-12-08T01:45:41.280Z,8.10
2018-12-08T01:46:41.271Z,8.03
2018-12-08T01:47:41.261Z,8.04
2018-12-08T01:48:41.256Z,8.03
2018-12-08T01:49:41.238Z,8.07
2018-12-08T01:50:41.228Z,8.02
2018-12-08T01:51:41.219Z,7.99
2018-12-08T01:52:41.210Z,8.06
2018-12-08T01:53:41.295Z,7.92
2018-12-08T01:54:41.195Z,7.94
2018-12-08T01:55:41.183Z,7.99
2018-12-08T01:56:41.172Z,8.00
2018-12-08T01:57:41.167Z,7.96
2018-12-08T01:58:41.158Z,7.92
2018-12-08T01:59:41.148Z,7.95
2018-12-08T02:00:41.139Z,7.96
2018-12-08T02:01:41.124Z,8.00
2018-12-08T02:02:41.115Z,7.94
2018-12-08T02:03:41.105Z,7.99
2018-12-08T02:04:41.095Z,8.00
2018-12-08T02:05:41.091Z,7.96
2018-12-08T02:06:41.081Z,8.02
2018-12-08T02:07:41.073Z,8.04
2018-12-08T02:08:41.062Z,7.94
2018-12-08T02:09:41.050Z,7.95
2018-12-08T02:10:41.039Z,7.92
2018-12-08T02:11:41.036Z,7.94
2018-12-08T02:12:41.024Z,7.96
2018-12-08T02:13:41.012Z,7.96
2018-12-08T02:14:41.003Z,7.99
2018-12-08T02:15:41.004Z,8.07
2018-12-08T02:16:40.981Z,7.96
2018-12-08T02:17:40.977Z,8.03
2018-12-08T02:18:40.969Z,7.96
2018-12-08T02:19:40.959Z,7.96
2018-12-08T02:20:40.950Z,8.03
2018-12-08T02:21:40.934Z,7.96
2018-12-08T02:22:40.926Z,8.07
2018-12-08T02:23:40.920Z,7.92
2018-12-08T02:24:40.906Z,8.04
2018-12-08T02:25:40.904Z,7.99
2018-12-08T02:26:40.893Z,7.96
2018-12-08T02:27:40.879Z,7.96
2018-12-08T02:28:40.868Z,8.02
2018-12-08T02:29:40.864Z,7.92
2018-12-08T02:30:40.856Z,7.89
2018-12-08T02:31:40.846Z,7.94
2018-12-08T02:32:40.835Z,7.86
2018-12-08T02:33:40.822Z,7.89
2018-12-08T02:34:40.812Z,7.99
2018-12-08T02:35:40.807Z,8.06
2018-12-08T02:36:40.791Z,7.99
2018-12-08T02:37:40.797Z,8.04
2018-12-08T02:38:42.197Z,8.09
2018-12-08T02:39:40.770Z,8.00
2018-12-08T02:40:40.759Z,7.95
2018-12-08T02:41:40.746Z,8.02
2018-12-08T02:42:40.736Z,7.94
2018-12-08T02:43:40.731Z,8.04
2018-12-08T02:44:40.722Z,8.04
2018-12-08T02:45:40.706Z,7.99
2018-12-08T02:46:40.697Z,8.07
2018-12-08T02:47:40.687Z,8.13
2018-12-08T02:48:40.682Z,8.21
2018-12-08T02:49:40.672Z,8.17
2018-12-08T02:50:40.663Z,8.10
2018-12-08T02:51:40.655Z,8.25
2018-12-08T02:52:40.645Z,8.27
2018-12-08T02:53:40.631Z,8.32
2018-12-08T02:54:40.621Z,8.36
2018-12-08T02:55:40.612Z,8.34
2018-12-08T02:56:40.603Z,8.28
2018-12-08T02:57:40.601Z,8.34
2018-12-08T02:58:40.590Z,8.29
2018-12-08T02:59:40.575Z,8.39
2018-12-08T03:00:40.565Z,8.42
2018-12-08T03:01:40.562Z,8.43
2018-12-08T03:02:40.553Z,8.34
2018-12-08T03:03:40.541Z,8.40
2018-12-08T03:04:40.531Z,8.40
2018-12-08T03:05:40.518Z,8.45
2018-12-08T03:06:40.510Z,8.52
2018-12-08T03:07:40.501Z,8.39
2018-12-08T03:08:40.492Z,8.36
2018-12-08T03:09:40.486Z,8.36
2018-12-08T03:10:40.478Z,8.40
2018-12-08T03:11:40.474Z,8.31
2018-12-08T03:12:40.459Z,8.27
2018-12-08T03:13:40.446Z,8.31
2018-12-08T03:14:40.436Z,8.27
2018-12-08T03:15:40.433Z,8.34
2018-12-08T03:16:40.425Z,8.31
2018-12-08T03:17:40.410Z,8.39
2018-12-08T03:18:40.400Z,8.40
2018-12-08T03:19:40.392Z,8.42
2018-12-08T03:20:40.381Z,8.42
2018-12-08T03:21:40.377Z,8.45
2018-12-08T03:22:40.367Z,8.43
2018-12-08T03:23:40.359Z,8.49
2018-12-08T03:24:40.349Z,8.45
2018-12-08T03:25:40.337Z,8.42
2018-12-08T03:26:40.328Z,8.54
2018-12-08T03:27:40.319Z,8.43
2018-12-08T03:28:40.308Z,8.45
2018-12-08T03:29:40.307Z,8.50
2018-12-08T03:30:40.297Z,8.46
2018-12-08T03:31:40.289Z,8.50
2018-12-08T03:32:40.273Z,8.49
2018-12-08T03:33:40.268Z,8.45
2018-12-08T03:34:40.260Z,8.52
2018-12-08T03:35:40.249Z,8.45
2018-12-08T03:36:40.242Z,8.49
2018-12-08T03:37:40.242Z,8.50
2018-12-08T03:38:40.219Z,8.50
2018-12-08T03:39:40.212Z,8.50
2018-12-08T03:40:40.200Z,8.55
2018-12-08T03:41:40.196Z,8.52
2018-12-08T03:42:40.188Z,8.47
2018-12-08T03:43:40.228Z,8.47
2018-12-08T03:44:40.169Z,8.46
2018-12-08T03:45:40.155Z,8.52
2018-12-08T03:46:40.147Z,8.49
2018-12-08T03:47:40.144Z,8.55
2018-12-08T03:48:40.132Z,8.58
2018-12-08T03:49:40.119Z,8.54
2018-12-08T03:50:40.112Z,8.63
2018-12-08T03:51:40.103Z,8.58
2018-12-08T03:52:40.093Z,8.57
2018-12-08T03:53:40.090Z,8.61
2018-12-08T03:54:40.081Z,8.58
2018-12-08T03:55:40.071Z,8.58
2018-12-08T03:56:40.060Z,8.68
2018-12-08T03:57:40.050Z,8.70
2018-12-08T03:58:40.039Z,8.68
2018-12-08T03:59:40.031Z,8.71
2018-12-08T04:00:40.023Z,8.73
2018-12-08T04:01:40.017Z,8.71
2018-12-08T04:02:40.008Z,8.76
2018-12-08T04:03:39.995Z,8.76
2018-12-08T04:04:39.987Z,8.78
2018-12-08T04:05:39.981Z,8.83
2018-12-08T04:06:39.972Z,8.86
2018-12-08T04:07:40.033Z,8.80
2018-12-08T04:08:39.956Z,8.85
2018-12-08T04:09:39.941Z,8.86
2018-12-08T04:10:39.933Z,8.89
2018-12-08T04:11:39.933Z,8.86
2018-12-08T04:12:39.916Z,8.89
2018-12-08T04:13:39.912Z,8.88
2018-12-08T04:14:39.903Z,8.93
2018-12-08T04:15:39.899Z,8.85
2018-12-08T04:16:39.884Z,9.01
2018-12-08T04:17:39.871Z,8.89
2018-12-08T04:18:39.861Z,9.00
2018-12-08T04:19:39.864Z,9.06
2018-12-08T04:20:39.848Z,9.00
2018-12-08T04:21:39.836Z,8.98
2018-12-08T04:22:39.827Z,9.01
2018-12-08T04:23:39.818Z,8.98
2018-12-08T04:24:39.812Z,8.94
2018-12-08T04:25:39.814Z,9.01
2018-12-08T04:26:39.796Z,9.04
2018-12-08T04:27:39.788Z,9.03
2018-12-08T04:28:39.779Z,9.00
2018-12-08T04:29:39.773Z,8.98
2018-12-08T04:30:39.756Z,8.97
2018-12-08T04:31:39.748Z,8.98
2018-12-08T04:32:39.739Z,9.01
2018-12-08T04:33:39.735Z,8.86
2018-12-08T04:34:39.727Z,8.88
2018-12-08T04:35:39.718Z,9.00
2018-12-08T04:36:39.704Z,9.03
2018-12-08T04:37:39.703Z,9.04
2018-12-08T04:38:39.693Z,8.96
2018-12-08T04:39:39.685Z,9.00
2018-12-08T04:40:39.676Z,8.97
2018-12-08T04:41:39.662Z,9.01
2018-12-08T04:42:39.652Z,9.15
2018-12-08T04:43:39.667Z,9.01
2018-12-08T04:44:39.633Z,9.12
2018-12-08T04:45:39.632Z,9.13
2018-12-08T04:46:39.624Z,9.06
2018-12-08T04:47:39.623Z,9.16
2018-12-08T04:48:39.604Z,9.08
2018-12-08T04:49:39.591Z,9.08
2018-12-08T04:50:39.586Z,9.10
2018-12-08T04:51:39.578Z,8.98
2018-12-08T04:52:39.570Z,9.01
2018-12-08T04:53:39.556Z,9.00
2018-12-08T04:54:39.547Z,9.04
2018-12-08T04:55:39.539Z,8.98
2018-12-08T04:56:39.531Z,9.08
2018-12-08T04:57:39.527Z,8.98
2018-12-08T04:58:39.517Z,9.04
2018-12-08T04:59:39.510Z,9.01
2018-12-08T05:00:39.500Z,9.01
2018-12-08T05:01:39.487Z,9.06
2018-12-08T05:02:39.480Z,8.97
2018-12-08T05:03:39.474Z,9.15
2018-12-08T05:04:39.461Z,9.06
2018-12-08T05:05:39.456Z,9.12
2018-12-08T05:06:39.449Z,9.13
2018-12-08T05:07:39.436Z,9.04
2018-12-08T05:08:39.428Z,9.15
2018-12-08T05:09:39.424Z,9.19
2018-12-08T05:10:39.416Z,9.10
2018-12-08T05:11:39.405Z,9.15
2018-12-08T05:12:39.395Z,9.15
2018-12-08T05:13:39.383Z,9.16
2018-12-08T05:14:39.376Z,9.23
2018-12-08T05:15:39.366Z,9.19
2018-12-08T05:16:39.356Z,9.27
2018-12-08T05:17:39.352Z,9.22
2018-12-08T05:18:39.345Z,9.19
2018-12-08T05:19:39.337Z,9.19
2018-12-08T05:20:39.328Z,9.16
2018-12-08T05:21:39.314Z,9.19
2018-12-08T05:22:39.305Z,9.26
2018-12-08T05:23:39.303Z,9.22
2018-12-08T05:24:39.294Z,9.31
2018-12-08T05:25:39.281Z,9.26
2018-12-08T05:26:39.271Z,9.27
2018-12-08T05:27:39.263Z,9.31
2018-12-08T05:28:39.255Z,9.30
2018-12-08T05:29:39.250Z,9.32
2018-12-08T05:30:39.242Z,9.37
2018-12-08T05:31:39.233Z,9.27
2018-12-08T05:32:39.224Z,9.26
2018-12-08T05:33:39.211Z,9.32
2018-12-08T05:34:39.205Z,9.32
2018-12-08T05:35:39.195Z,9.31
2018-12-08T05:36:39.186Z,9.26
2018-12-08T05:37:39.186Z,9.34
2018-12-08T05:38:39.175Z,9.32
2018-12-08T05:39:39.162Z,9.32
2018-12-08T05:40:39.152Z,9.32
2018-12-08T05:41:39.149Z,9.37
2018-12-08T05:42:39.141Z,9.40
2018-12-08T05:43:39.132Z,9.40
2018-12-08T05:44:39.123Z,9.40
2018-12-08T05:45:39.109Z,9.41
2018-12-08T05:46:39.100Z,9.38
2018-12-08T05:47:39.093Z,9.44
2018-12-08T05:48:39.083Z,9.41
2018-12-08T05:49:39.080Z,9.38
2018-12-08T05:50:39.073Z,9.34
2018-12-08T05:51:39.064Z,9.37
2018-12-08T05:52:39.058Z,9.40
2018-12-08T05:53:39.041Z,9.40
2018-12-08T05:54:39.033Z,9.41
2018-12-08T05:55:39.030Z,9.37
2018-12-08T05:56:39.022Z,9.40
2018-12-08T05:57:39.008Z,9.40
2018-12-08T05:58:38.999Z,9.45
2018-12-08T05:59:38.991Z,9.44
2018-12-08T06:00:38.982Z,9.48
2018-12-08T06:01:38.981Z,9.41
2018-12-08T06:02:38.973Z,9.50
2018-12-08T06:03:38.964Z,9.40
2018-12-08T06:04:38.954Z,9.37
2018-12-08T06:05:38.940Z,9.40
2018-12-08T06:06:38.932Z,9.45
2018-12-08T06:07:38.924Z,9.45
2018-12-08T06:08:38.914Z,9.49
2018-12-08T06:09:38.914Z,9.52
2018-12-08T06:10:38.902Z,9.48
2018-12-08T06:11:38.890Z,9.44
2018-12-08T06:12:38.881Z,9.48
2018-12-08T06:13:38.878Z,9.52
2018-12-08T06:14:40.078Z,9.44
2018-12-08T06:15:38.861Z,9.49
2018-12-08T06:16:38.853Z,9.41
2018-12-08T06:17:38.840Z,9.42
2018-12-08T06:18:38.833Z,9.40
2018-12-08T06:19:38.824Z,9.42
2018-12-08T06:20:38.920Z,9.41
2018-12-08T06:21:38.810Z,9.37
2018-12-08T06:22:38.803Z,9.42
2018-12-08T06:23:38.793Z,9.49
2018-12-08T06:24:38.785Z,9.41
2018-12-08T06:25:38.778Z,9.48
2018-12-08T06:26:38.783Z,9.38
2018-12-08T06:27:38.759Z,9.40
2018-12-08T06:28:39.002Z,9.44
2018-12-08T06:29:38.739Z,9.41
2018-12-08T06:30:38.729Z,9.41
2018-12-08T06:31:38.722Z,9.38
2018-12-08T06:32:38.712Z,9.40
2018-12-08T06:33:38.709Z,9.37
2018-12-08T06:34:38.702Z,9.40
2018-12-08T06:35:38.693Z,9.38
2018-12-08T06:36:38.683Z,9.38
2018-12-08T06:37:38.671Z,9.41
2018-12-08T06:38:38.663Z,9.44
2018-12-08T06:39:38.656Z,9.41
2018-12-08T06:40:38.646Z,9.41
2018-12-08T06:41:38.641Z,9.34
2018-12-08T06:42:38.636Z,9.37
2018-12-08T06:43:38.619Z,9.38
2018-12-08T06:44:38.614Z,9.41
2018-12-08T06:45:38.606Z,9.37
2018-12-08T06:46:38.599Z,9.37
2018-12-08T06:47:38.591Z,9.40
2018-12-08T06:48:38.582Z,9.40
2018-12-08T06:49:38.569Z,9.40
2018-12-08T06:50:38.561Z,9.41
2018-12-08T06:51:38.557Z,9.41
2018-12-08T06:52:38.548Z,9.42
2018-12-08T06:53:38.538Z,9.38
2018-12-08T06:54:38.527Z,9.37
2018-12-08T06:55:38.520Z,9.40
2018-12-08T06:56:38.509Z,9.38
2018-12-08T06:57:38.506Z,9.41
2018-12-08T06:58:38.499Z,9.40
2018-12-08T06:59:38.484Z,9.42
2018-12-08T07:00:38.475Z,9.49
2018-12-08T07:01:38.473Z,9.40
2018-12-08T07:02:38.466Z,9.41
2018-12-08T07:03:38.455Z,9.38
2018-12-08T07:04:38.448Z,9.38
2018-12-08T07:05:38.433Z,9.40
2018-12-08T07:06:38.424Z,9.44
2018-12-08T07:07:38.418Z,9.40
2018-12-08T07:08:38.407Z,9.30
2018-12-08T07:09:38.404Z,9.19
2018-12-08T07:10:38.395Z,9.15
2018-12-08T07:11:38.388Z,9.03
2018-12-08T07:12:38.379Z,9.16
2018-12-08T07:13:38.364Z,9.06
2018-12-08T07:14:38.357Z,9.13
2018-12-08T07:15:38.354Z,9.03
2018-12-08T07:16:38.344Z,9.06
2018-12-08T07:17:38.330Z,9.06
2018-12-08T07:18:38.324Z,8.96
2018-12-08T07:19:38.313Z,8.93
2018-12-08T07:20:38.305Z,8.98
2018-12-08T07:21:38.301Z,8.97
2018-12-08T07:22:38.292Z,8.96
2018-12-08T07:23:38.285Z,8.97
2018-12-08T07:24:38.274Z,8.96
2018-12-08T07:25:38.262Z,8.93
2018-12-08T07:26:38.259Z,8.98
2018-12-08T07:27:38.248Z,8.98
2018-12-08T07:28:38.237Z,8.97
2018-12-08T07:29:38.233Z,8.91
2018-12-08T07:30:38.231Z,8.98
2018-12-08T07:31:38.215Z,8.89
2018-12-08T07:32:38.924Z,8.89
2018-12-08T07:33:38.198Z,8.86
2018-12-08T07:34:38.190Z,8.86
2018-12-08T07:35:38.180Z,8.85
2018-12-08T07:36:38.170Z,8.85
2018-12-08T07:37:38.159Z,8.86
2018-12-08T07:38:38.149Z,8.78
2018-12-08T07:39:38.142Z,8.86
2018-12-08T07:40:38.132Z,8.88
2018-12-08T07:41:38.127Z,8.85
2018-12-08T07:42:38.120Z,8.83
2018-12-08T07:43:38.111Z,8.83
2018-12-08T07:44:38.102Z,8.89
2018-12-08T07:45:38.089Z,8.85
2018-12-08T07:46:38.079Z,8.86
2018-12-08T07:47:38.077Z,8.89
2018-12-08T07:48:38.067Z,8.83
2018-12-08T07:49:38.053Z,8.89
2018-12-08T07:50:38.044Z,8.96
2018-12-08T07:51:38.036Z,8.93
2018-12-08T07:52:38.025Z,8.98
2018-12-08T07:53:38.024Z,8.97
2018-12-08T07:54:38.013Z,8.97
2018-12-08T07:55:38.005Z,8.96
2018-12-08T07:56:37.999Z,8.98
2018-12-08T07:57:37.982Z,8.93
2018-12-08T07:58:37.974Z,8.85
2018-12-08T07:59:37.965Z,8.85
2018-12-08T08:00:37.956Z,8.91
2018-12-08T08:01:37.953Z,8.89
2018-12-08T08:02:37.943Z,8.86
2018-12-08T08:03:37.931Z,8.93
2018-12-08T08:04:37.921Z,8.91
2018-12-08T08:05:37.917Z,8.94
2018-12-08T08:06:37.908Z,8.89
2018-12-08T08:07:37.901Z,8.86
2018-12-08T08:08:37.891Z,8.91
2018-12-08T08:09:37.878Z,8.85
2018-12-08T08:10:37.870Z,8.88
2018-12-08T08:11:37.862Z,8.93
2018-12-08T08:12:37.851Z,8.98
2018-12-08T08:13:37.848Z,9.01
2018-12-08T08:14:37.839Z,9.08
2018-12-08T08:15:37.830Z,8.97
2018-12-08T08:16:37.821Z,8.98
2018-12-08T08:17:37.807Z,8.93
2018-12-08T08:18:37.799Z,9.10
2018-12-08T08:19:37.794Z,9.16
2018-12-08T08:20:37.786Z,9.01
2018-12-08T08:21:37.772Z,9.20
2018-12-08T08:22:37.764Z,9.17
2018-12-08T08:23:37.756Z,9.19
2018-12-08T08:24:37.746Z,9.16
2018-12-08T08:25:37.743Z,9.16
2018-12-08T08:26:37.735Z,9.27
2018-12-08T08:27:37.734Z,9.26
2018-12-08T08:28:37.717Z,9.30
2018-12-08T08:29:37.705Z,9.32
2018-12-08T08:30:37.696Z,9.35
2018-12-08T08:31:37.687Z,9.40
2018-12-08T08:32:37.680Z,9.38
2018-12-08T08:33:37.674Z,9.42
2018-12-08T08:34:37.665Z,9.45
2018-12-08T08:35:37.653Z,9.49
2018-12-08T08:36:37.645Z,9.44
2018-12-08T08:37:37.641Z,9.45
2018-12-08T08:38:37.632Z,9.48
2018-12-08T08:39:37.625Z,9.44
2018-12-08T08:40:37.615Z,9.45
2018-12-08T08:41:37.603Z,9.50
2018-12-08T08:42:37.594Z,9.50
2018-12-08T08:43:37.587Z,9.52
2018-12-08T08:44:37.578Z,9.59
2018-12-08T08:45:37.575Z,9.60
2018-12-08T08:46:37.566Z,9.56
2018-12-08T08:47:37.557Z,9.53
2018-12-08T08:48:37.548Z,9.62
2018-12-08T08:49:37.535Z,9.60
2018-12-08T08:50:37.528Z,9.59
2018-12-08T08:51:37.524Z,9.52
2018-12-08T08:52:37.515Z,9.48
2018-12-08T08:53:37.502Z,9.48
2018-12-08T08:54:37.494Z,9.48
2018-12-08T08:55:37.487Z,9.59
2018-12-08T08:56:37.478Z,9.53
2018-12-08T08:57:37.475Z,9.48
2018-12-08T08:58:37.466Z,9.45
2018-12-08T08:59:37.462Z,9.52
2018-12-08T09:00:37.447Z,9.50
2018-12-08T09:01:37.435Z,9.44
2018-12-08T09:02:37.427Z,9.48
2018-12-08T09:03:37.420Z,9.42
2018-12-08T09:04:37.412Z,9.40
2018-12-08T09:05:37.407Z,9.37
2018-12-08T09:06:37.400Z,9.42
2018-12-08T09:07:37.386Z,9.41
2018-12-08T09:08:37.382Z,9.41
2018-12-08T09:09:37.373Z,9.41
2018-12-08T09:10:37.366Z,9.49
2018-12-08T09:11:37.358Z,9.56
2018-12-08T09:12:37.347Z,9.45
2018-12-08T09:13:37.336Z,9.52
2018-12-08T09:14:37.327Z,9.52
2018-12-08T09:15:37.327Z,9.52
2018-12-08T09:16:37.309Z,9.52
2018-12-08T09:17:37.307Z,9.52
2018-12-08T09:18:37.299Z,9.53
2018-12-08T09:19:37.291Z,9.62
2018-12-08T09:20:37.282Z,9.59
2018-12-08T09:21:37.269Z,9.59
2018-12-08T09:22:37.264Z,9.60
2018-12-08T09:23:37.258Z,9.67
2018-12-08T09:24:37.248Z,9.62
2018-12-08T09:25:37.236Z,9.70
2018-12-08T09:26:37.226Z,9.67
2018-12-08T09:27:37.218Z,9.68
2018-12-08T09:28:37.211Z,9.70
2018-12-08T09:29:37.207Z,9.67
2018-12-08T09:30:37.197Z,9.59
2018-12-08T09:31:37.189Z,9.58
2018-12-08T09:32:37.183Z,9.71
2018-12-08T09:33:37.168Z,9.67
2018-12-08T09:34:37.164Z,9.65
2018-12-08T09:35:37.154Z,9.71
2018-12-08T09:36:37.143Z,9.71
2018-12-08T09:37:37.142Z,9.65
2018-12-08T09:38:37.135Z,9.67
2018-12-08T09:39:37.119Z,9.63
2018-12-08T09:40:37.109Z,9.75
2018-12-08T09:41:37.155Z,9.75
2018-12-08T09:42:37.097Z,9.74
2018-12-08T09:43:37.089Z,9.70
2018-12-08T09:44:37.082Z,9.59
2018-12-08T09:45:41.801Z,9.62
2018-12-08T09:46:37.061Z,9.67
2018-12-08T09:47:37.053Z,9.63
2018-12-08T09:48:37.043Z,9.62
2018-12-08T09:49:37.042Z,9.71
2018-12-08T09:50:37.034Z,9.63
2018-12-08T09:51:37.025Z,9.62
2018-12-08T09:52:37.023Z,9.62
2018-12-08T09:53:37.003Z,9.63
2018-12-08T09:54:36.998Z,9.63
2018-12-08T09:55:36.995Z,9.70
2018-12-08T09:56:36.984Z,9.70
2018-12-08T09:57:37.035Z,9.75
2018-12-08T09:58:36.963Z,9.85
2018-12-08T09:59:36.956Z,9.74
2018-12-08T10:00:36.944Z,9.80
2018-12-08T10:01:36.941Z,9.80
2018-12-08T10:02:36.933Z,9.77
2018-12-08T10:03:36.928Z,9.75
2018-12-08T10:04:36.917Z,9.92
2018-12-08T10:05:36.914Z,9.89
2018-12-08T10:06:36.896Z,9.89
2018-12-08T10:07:36.889Z,9.92
2018-12-08T10:08:36.879Z,9.88
2018-12-08T10:09:36.882Z,9.93
2018-12-08T10:10:36.869Z,9.99
2018-12-08T10:11:36.857Z,9.98
2018-12-08T10:12:36.848Z,9.96
2018-12-08T10:13:36.846Z,9.93
2018-12-08T10:14:36.836Z,9.92
2018-12-08T10:15:36.829Z,9.91
2018-12-08T10:16:36.821Z,9.92
2018-12-08T10:17:36.810Z,9.89
2018-12-08T10:18:36.801Z,9.89
2018-12-08T10:19:36.800Z,9.93
2018-12-08T10:20:36.783Z,9.86
2018-12-08T10:21:36.781Z,9.81
2018-12-08T10:22:36.773Z,9.89
2018-12-08T10:23:36.768Z,9.92
2018-12-08T10:24:36.756Z,9.89
2018-12-08T10:25:36.743Z,9.92
2018-12-08T10:26:36.736Z,9.91
2018-12-08T10:27:36.732Z,9.95
2018-12-08T10:28:36.724Z,9.98
2018-12-08T10:29:36.712Z,10.02
2018-12-08T10:30:36.704Z,9.91
2018-12-08T10:31:36.697Z,9.96
2018-12-08T10:32:36.686Z,9.99
2018-12-08T10:33:36.685Z,10.07
2018-12-08T10:34:36.676Z,10.07
2018-12-08T10:35:36.669Z,10.10
2018-12-08T10:36:36.661Z,10.11
2018-12-08T10:37:36.647Z,10.06
2018-12-08T10:38:36.640Z,10.13
2018-12-08T10:39:36.634Z,10.13
2018-12-08T10:40:36.627Z,10.09
2018-12-08T10:41:36.620Z,10.10
2018-12-08T10:42:36.613Z,10.06
2018-12-08T10:43:36.601Z,9.99
2018-12-08T10:44:36.592Z,10.06
2018-12-08T10:45:36.588Z,10.01
2018-12-08T10:46:36.583Z,9.98
2018-12-08T10:47:36.573Z,9.98
2018-12-08T10:48:36.566Z,10.07
2018-12-08T10:49:36.552Z,10.10
2018-12-08T10:50:36.545Z,10.17
2018-12-08T10:51:36.538Z,10.16
2018-12-08T10:52:36.527Z,10.22
2018-12-08T10:53:36.526Z,10.26
2018-12-08T10:54:36.520Z,10.22
2018-12-08T10:55:36.511Z,10.17
2018-12-08T10:56:36.501Z,10.22
2018-12-08T10:57:36.498Z,10.32
2018-12-08T10:58:36.484Z,10.31
2018-12-08T10:59:36.479Z,10.31
2018-12-08T11:00:36.470Z,10.32
2018-12-08T11:01:36.458Z,10.47
2018-12-08T11:02:36.451Z,10.36
2018-12-08T11:03:36.444Z,10.42
2018-12-08T11:04:36.435Z,10.43
2018-12-08T11:05:36.432Z,10.39
2018-12-08T11:06:36.427Z,10.52
2018-12-08T11:07:36.419Z,10.62
2018-12-08T11:08:36.411Z,10.60
2018-12-08T11:09:36.399Z,10.60
2018-12-08T11:10:36.392Z,10.69
2018-12-08T11:11:36.383Z,10.73
2018-12-08T11:12:37.525Z,10.68
2018-12-08T11:13:36.372Z,10.68
2018-12-08T11:14:36.365Z,10.86
2018-12-08T11:15:36.354Z,10.84
2018-12-08T11:16:36.346Z,10.81
2018-12-08T11:17:36.344Z,10.80
2018-12-08T11:18:36.384Z,10.86
2018-12-08T11:19:36.329Z,10.90
2018-12-08T11:20:36.322Z,10.93
2018-12-08T11:21:36.311Z,10.87
2018-12-08T11:22:36.302Z,10.83
2018-12-08T11:23:36.296Z,10.95
2018-12-08T11:24:36.288Z,10.99
2018-12-08T11:25:36.285Z,10.99
2018-12-08T11:26:36.280Z,11.06
2018-12-08T11:27:36.273Z,11.05
2018-12-08T11:28:36.264Z,11.13
2018-12-08T11:29:36.252Z,11.11
2018-12-08T11:30:36.247Z,11.12
2018-12-08T11:31:36.246Z,11.17
2018-12-08T11:32:36.235Z,11.17
2018-12-08T11:33:36.224Z,11.28
2018-12-08T11:34:36.218Z,11.27
2018-12-08T11:35:36.211Z,11.24
2018-12-08T11:36:36.203Z,11.30
2018-12-08T11:37:36.201Z,11.26
2018-12-08T11:38:36.195Z,11.27
2018-12-08T11:39:36.190Z,11.24
2018-12-08T11:40:36.181Z,11.28
2018-12-08T11:41:36.169Z,11.27
2018-12-08T11:42:36.166Z,11.26
2018-12-08T11:43:36.159Z,11.33
2018-12-08T11:44:36.148Z,11.30
2018-12-08T11:45:36.146Z,11.35
2018-12-08T11:46:36.142Z,11.23
2018-12-08T11:47:36.132Z,11.28
2018-12-08T11:48:36.123Z,11.27
2018-12-08T11:49:36.120Z,11.27
2018-12-08T11:50:36.155Z,11.30
2018-12-08T11:51:36.108Z,11.16
2018-12-08T11:52:36.100Z,11.19
2018-12-08T11:53:36.088Z,11.19
2018-12-08T11:54:36.082Z,11.27
2018-12-08T11:55:36.082Z,11.13
2018-12-08T11:56:36.068Z,11.19
2018-12-08T11:57:36.067Z,11.13
2018-12-08T11:58:36.062Z,11.12
2018-12-08T11:59:36.054Z,11.19
2018-12-08T12:00:36.045Z,11.16
2018-12-08T12:01:36.043Z,11.09
2018-12-08T12:02:36.027Z,11.16
2018-12-08T12:03:36.027Z,11.16
2018-12-08T12:04:36.018Z,11.19
2018-12-08T12:05:36.007Z,11.16
2018-12-08T12:06:36.002Z,11.19
2018-12-08T12:07:35.995Z,11.16
2018-12-08T12:08:35.986Z,11.11
2018-12-08T12:09:35.985Z,11.13
2018-12-08T12:10:35.979Z,11.20
2018-12-08T12:11:35.982Z,11.13
2018-12-08T12:12:35.986Z,11.24
2018-12-08T12:13:35.956Z,11.19
2018-12-08T12:14:35.946Z,11.24
2018-12-08T12:15:35.941Z,11.12
2018-12-08T12:16:35.934Z,11.24
2018-12-08T12:17:35.931Z,11.23
2018-12-08T12:18:35.925Z,11.26
2018-12-08T12:19:35.912Z,11.26
2018-12-08T12:20:35.905Z,11.21
2018-12-08T12:21:35.903Z,11.21
2018-12-08T12:22:35.918Z,11.21
2018-12-08T12:23:35.889Z,11.23
2018-12-08T12:24:35.882Z,11.27
2018-12-08T12:25:35.870Z,11.28
2018-12-08T12:26:35.863Z,11.26
2018-12-08T12:27:35.858Z,11.27
2018-12-08T12:28:35.849Z,11.24
2018-12-08T12:29:35.847Z,11.27
2018-12-08T12:30:35.839Z,11.13
2018-12-08T12:31:35.835Z,11.20
2018-12-08T12:32:35.828Z,11.27
2018-12-08T12:33:35.815Z,11.33
2018-12-08T12:34:35.808Z,11.33
2018-12-08T12:35:35.808Z,11.31
2018-12-08T12:36:35.799Z,11.26
2018-12-08T12:37:35.788Z,11.30
2018-12-08T12:38:35.781Z,11.28
2018-12-08T12:39:35.773Z,11.28
2018-12-08T12:40:35.766Z,11.28
2018-12-08T12:41:35.762Z,11.23
2018-12-08T12:42:35.757Z,11.31
2018-12-08T12:43:35.751Z,11.27
2018-12-08T12:44:35.743Z,11.30
2018-12-08T12:45:35.734Z,11.31
2018-12-08T12:46:35.725Z,11.33
2018-12-08T12:47:35.719Z,11.33
2018-12-08T12:48:35.716Z,11.28
2018-12-08T12:49:35.715Z,11.31
2018-12-08T12:50:35.702Z,11.28
2018-12-08T12:51:35.698Z,11.21
2018-12-08T12:52:35.683Z,11.31
2018-12-08T12:53:35.681Z,11.33
2018-12-08T12:54:35.674Z,11.31
2018-12-08T12:55:35.667Z,11.27
2018-12-08T12:56:35.658Z,11.36
2018-12-08T12:57:35.647Z,11.27
2018-12-08T12:58:35.641Z,11.33
2018-12-08T12:59:35.634Z,11.38
2018-12-08T13:00:35.626Z,11.39
2018-12-08T13:01:35.624Z,11.33
2018-12-08T13:02:35.617Z,11.31
2018-12-08T13:03:35.612Z,11.27
2018-12-08T13:04:35.604Z,11.41
2018-12-08T13:05:35.591Z,11.48
2018-12-08T13:06:35.584Z,11.48
2018-12-08T13:07:35.584Z,11.48
2018-12-08T13:08:35.576Z,11.51
2018-12-08T13:09:35.565Z,11.46
2018-12-08T13:10:35.559Z,11.46
2018-12-08T13:11:35.550Z,11.51
2018-12-08T13:12:35.544Z,11.53
2018-12-08T13:13:35.540Z,11.59